createdAt,value
2023-01-02T00:02:27.730Z,15.32
2023-01-02T00:04:54.677Z,15.33
2023-01-02T00:07:21.274Z,15.32
2023-01-02T00:09:47.854Z,15.31
2023-01-02T00:12:14.500Z,15.34
2023-01-02T00:14:41.035Z,15.34
2023-01-02T00:17:08.753Z,15.33
2023-01-02T00:19:35.307Z,15.38
2023-01-02T00:22:01.847Z,15.41
2023-01-02T00:24:28.445Z,15.52
2023-01-02T00:26:54.981Z,15.65
2023-01-02T00:29:21.507Z,15.72
2023-01-02T00:31:48.146Z,15.71
2023-01-02T00:34:14.770Z,15.69
2023-01-02T00:36:41.333Z,15.69
2023-01-02T00:39:07.978Z,15.67
2023-01-02T00:41:34.621Z,15.67
2023-01-02T00:44:01.269Z,15.67
2023-01-02T00:46:27.941Z,15.67
2023-01-02T00:48:54.590Z,15.63
2023-01-02T00:51:21.129Z,15.59
2023-01-02T00:53:47.682Z,15.57
2023-01-02T00:56:14.306Z,15.56
2023-01-02T00:58:40.842Z,15.55
2023-01-02T01:01:07.473Z,15.51
2023-01-02T01:03:34.386Z,15.48
2023-01-02T01:06:07.531Z,15.43
2023-01-02T01:08:36.350Z,15.40
2023-01-02T01:11:14.039Z,15.34
2023-01-02T01:13:40.868Z,15.32
2023-01-02T01:16:10.134Z,15.31
2023-01-02T01:18:37.569Z,15.27
2023-01-02T01:21:15.604Z,15.21
2023-01-02T01:23:42.751Z,15.17
2023-01-02T01:26:12.556Z,15.17
2023-01-02T01:28:39.852Z,15.17
2023-01-02T01:31:12.044Z,15.13
2023-01-02T01:33:39.965Z,15.14
2023-01-02T01:36:09.644Z,15.12
2023-01-02T01:38:36.384Z,15.08
2023-01-02T01:41:03.451Z,15.10
2023-01-02T01:43:36.008Z,15.08
2023-01-02T01:46:03.388Z,15.11
2023-01-02T01:48:30.498Z,15.10
2023-01-02T01:50:57.398Z,15.06
2023-01-02T01:53:24.705Z,15.02
2023-01-02T01:56:00.466Z,14.94
2023-01-02T01:58:31.588Z,14.89
2023-01-02T02:00:58.756Z,14.88
2023-01-02T02:03:29.509Z,14.87
2023-01-02T02:05:58.771Z,14.87
2023-01-02T02:08:52.261Z,14.86
2023-01-02T02:11:19.182Z,14.85
2023-01-02T02:13:46.659Z,14.85
2023-01-02T02:16:23.674Z,14.83
2023-01-02T02:19:08.669Z,14.81
2023-01-02T02:22:07.348Z,14.78
2023-01-02T02:24:52.084Z,14.75
2023-01-02T02:27:27.818Z,14.73
2023-01-02T02:30:08.227Z,14.71
2023-01-02T02:32:40.602Z,14.71
2023-01-02T02:35:27.036Z,14.66
2023-01-02T02:38:15.897Z,14.64
2023-01-02T02:41:12.024Z,14.65
2023-01-02T02:43:50.954Z,14.64
2023-01-02T02:46:38.112Z,14.61
2023-01-02T02:49:35.370Z,14.58
2023-01-02T02:52:06.087Z,14.56
2023-01-02T02:54:53.941Z,14.54
2023-01-02T02:57:22.516Z,14.50
2023-01-02T02:59:49.104Z,14.50
2023-01-02T03:02:16.951Z,14.50
2023-01-02T03:04:51.217Z,14.47
2023-01-02T03:07:42.170Z,14.47
2023-01-02T03:10:34.309Z,14.49
2023-01-02T03:13:19.370Z,14.46
2023-01-02T03:16:04.509Z,14.48
2023-01-02T03:19:05.747Z,14.43
2023-01-02T03:21:46.172Z,14.45
2023-01-02T03:24:16.489Z,14.46
2023-01-02T03:26:47.345Z,14.46
2023-01-02T03:29:22.054Z,14.46
2023-01-02T03:31:53.093Z,14.47
2023-01-02T03:34:32.443Z,14.47
2023-01-02T03:37:03.852Z,14.50
2023-01-02T03:39:35.368Z,14.55
2023-01-02T03:42:08.591Z,14.57
2023-01-02T03:44:43.238Z,14.56
2023-01-02T03:47:46.942Z,14.54
2023-01-02T03:50:41.941Z,14.51
2023-01-02T03:53:08.558Z,14.55
2023-01-02T03:55:38.322Z,14.55
2023-01-02T03:58:39.475Z,14.52
2023-01-02T04:01:12.752Z,14.53
2023-01-02T04:03:48.124Z,14.48
2023-01-02T04:06:19.475Z,14.48
2023-01-02T04:08:56.592Z,14.45
2023-01-02T04:11:25.924Z,14.44
2023-01-02T04:13:58.353Z,14.47
2023-01-02T04:16:30.062Z,14.51
2023-01-02T04:19:24.499Z,14.51
2023-01-02T04:21:54.425Z,14.57
2023-01-02T04:24:28.563Z,14.57
2023-01-02T04:27:29.051Z,14.55
2023-01-02T04:29:56.635Z,14.58
2023-01-02T04:32:24.489Z,14.60
2023-01-02T04:34:53.011Z,14.62
2023-01-02T04:37:35.989Z,14.63
2023-01-02T04:40:12.504Z,14.60
2023-01-02T04:42:39.091Z,14.63
2023-01-02T04:45:06.178Z,14.65
2023-01-02T04:47:32.741Z,14.67
2023-01-02T04:49:59.436Z,14.69
2023-01-02T04:52:26.059Z,14.72
2023-01-02T04:54:52.646Z,14.73
2023-01-02T04:57:19.320Z,14.74
2023-01-02T04:59:45.862Z,14.77
2023-01-02T05:02:12.463Z,14.78
2023-01-02T05:04:39.178Z,14.79
2023-01-02T05:07:05.742Z,14.79
2023-01-02T05:09:32.629Z,14.82
2023-01-02T05:11:59.329Z,14.82
2023-01-02T05:14:25.924Z,14.83
2023-01-02T05:16:52.482Z,14.82
2023-01-02T05:19:19.115Z,14.84
2023-01-02T05:22:04.185Z,14.86
2023-01-02T05:24:30.909Z,14.84
2023-01-02T05:26:57.481Z,14.79
2023-01-02T05:29:24.074Z,14.78
2023-01-02T05:31:50.702Z,14.79
2023-01-02T05:34:17.701Z,14.76
2023-01-02T05:36:44.255Z,14.71
2023-01-02T05:39:12.473Z,14.66
2023-01-02T05:41:39.483Z,14.68
2023-01-02T05:44:08.710Z,14.67
2023-01-02T05:46:35.950Z,14.66
2023-01-02T05:49:09.703Z,14.65
2023-01-02T05:51:36.775Z,14.62
2023-01-02T05:54:04.080Z,14.58
2023-01-02T05:56:31.487Z,14.58
2023-01-02T05:58:58.534Z,14.65
2023-01-02T06:01:28.117Z,14.72
2023-01-02T06:03:58.004Z,14.77
2023-01-02T06:06:46.170Z,14.83
2023-01-02T06:09:14.292Z,14.86
2023-01-02T06:11:41.177Z,14.83
2023-01-02T06:14:09.053Z,14.77
2023-01-02T06:16:35.647Z,14.74
2023-01-02T06:19:02.359Z,14.78
2023-01-02T06:21:29.129Z,14.80
2023-01-02T06:23:57.281Z,14.76
2023-01-02T06:26:31.202Z,14.73
2023-01-02T06:29:01.232Z,14.75
2023-01-02T06:31:29.577Z,14.78
2023-01-02T06:34:01.361Z,14.82
2023-01-02T06:36:32.839Z,14.84
2023-01-02T06:38:59.491Z,14.82
2023-01-02T06:41:26.658Z,14.84
2023-01-02T06:43:53.349Z,14.79
2023-01-02T06:46:22.233Z,14.75
2023-01-02T06:48:50.350Z,14.69
2023-01-02T06:51:19.708Z,14.66
2023-01-02T06:53:46.579Z,14.64
2023-01-02T06:56:15.528Z,14.60
2023-01-02T06:58:42.113Z,14.59
2023-01-02T07:01:11.575Z,14.61
2023-01-02T07:03:38.285Z,14.70
2023-01-02T07:06:08.022Z,14.73
2023-01-02T07:08:34.653Z,14.74
2023-01-02T07:11:14.452Z,14.82
2023-01-02T07:13:42.761Z,14.86
2023-01-02T07:16:11.840Z,14.84
2023-01-02T07:18:38.956Z,14.76
2023-01-02T07:21:07.049Z,14.75
2023-01-02T07:23:34.452Z,14.69
2023-01-02T07:26:03.123Z,14.65
2023-01-02T07:28:30.548Z,14.60
2023-01-02T07:31:02.441Z,14.57
2023-01-02T07:33:29.927Z,14.56
2023-01-02T07:36:06.463Z,14.55
2023-01-02T07:38:33.605Z,14.57
2023-01-02T07:41:00.341Z,14.57
2023-01-02T07:43:26.978Z,14.56
2023-01-02T07:45:53.712Z,14.59
2023-01-02T07:48:20.328Z,14.61
2023-01-02T07:50:47.094Z,14.62
2023-01-02T07:53:13.916Z,14.60
2023-01-02T07:55:40.554Z,14.58
2023-01-02T07:58:07.731Z,14.59
2023-01-02T08:00:34.465Z,14.59
2023-01-02T08:03:01.279Z,14.57
2023-01-02T08:05:27.975Z,14.56
2023-01-02T08:07:54.592Z,14.53
2023-01-02T08:10:21.216Z,14.50
2023-01-02T08:12:47.832Z,14.44
2023-01-02T08:15:14.400Z,14.42
2023-01-02T08:17:41.610Z,14.36
2023-01-02T08:20:09.352Z,14.33
2023-01-02T08:22:36.204Z,14.28
2023-01-02T08:25:03.307Z,14.24
2023-01-02T08:27:30.020Z,14.20
2023-01-02T08:29:56.606Z,14.11
2023-01-02T08:32:23.199Z,14.05
2023-01-02T08:34:49.790Z,14.00
2023-01-02T08:37:16.484Z,13.95
2023-01-02T08:39:43.184Z,13.88
2023-01-02T08:42:09.975Z,13.83
2023-01-02T08:44:38.194Z,13.76
2023-01-02T08:47:06.017Z,13.72
2023-01-02T08:49:32.621Z,13.65
2023-01-02T08:51:59.285Z,13.60
2023-01-02T08:54:25.976Z,13.55
2023-01-02T08:56:52.665Z,13.51
2023-01-02T08:59:19.373Z,13.45
2023-01-02T09:01:46.196Z,13.42
2023-01-02T09:04:13.624Z,13.39
2023-01-02T09:06:41.179Z,13.32
2023-01-02T09:09:11.901Z,13.28
2023-01-02T09:11:51.120Z,13.21
2023-01-02T09:14:20.200Z,13.17
2023-01-02T09:16:47.607Z,13.08
2023-01-02T09:19:14.194Z,13.02
2023-01-02T09:21:40.816Z,12.98
2023-01-02T09:24:08.115Z,12.96
2023-01-02T09:26:35.196Z,12.93
2023-01-02T09:29:01.820Z,12.88
2023-01-02T09:31:28.457Z,12.88
2023-01-02T09:33:55.311Z,12.85
2023-01-02T09:36:22.727Z,12.82
2023-01-02T09:38:58.015Z,12.82
2023-01-02T09:41:53.103Z,12.80
2023-01-02T09:44:30.706Z,12.82
2023-01-02T09:47:04.242Z,12.85
2023-01-02T09:49:35.164Z,12.86
2023-01-02T09:52:01.864Z,12.86
2023-01-02T09:54:33.653Z,12.86
2023-01-02T09:57:31.151Z,12.86
2023-01-02T10:00:02.451Z,12.90
2023-01-02T10:03:07.405Z,12.88
2023-01-02T10:05:46.052Z,12.88
2023-01-02T10:08:46.122Z,12.86
2023-01-02T10:11:24.792Z,12.81
2023-01-02T10:14:20.626Z,12.82
2023-01-02T10:16:55.652Z,12.83
2023-01-02T10:19:31.085Z,12.83
2023-01-02T10:22:00.909Z,12.85
2023-01-02T10:24:42.231Z,12.85
2023-01-02T10:27:22.637Z,12.82
2023-01-02T10:30:01.180Z,12.81
2023-01-02T10:32:30.683Z,12.82
2023-01-02T10:35:06.226Z,12.86
2023-01-02T10:37:34.434Z,12.89
2023-01-02T10:40:01.393Z,12.92
2023-01-02T10:42:30.795Z,12.91
2023-01-02T10:44:57.375Z,12.91
2023-01-02T10:47:29.981Z,12.88
2023-01-02T10:49:57.279Z,12.83
2023-01-02T10:52:34.871Z,12.80
2023-01-02T10:55:03.159Z,12.82
2023-01-02T10:57:51.875Z,12.80
2023-01-02T11:00:22.575Z,12.84
2023-01-02T11:02:59.071Z,12.81
2023-01-02T11:05:31.268Z,12.77
2023-01-02T11:07:58.000Z,12.68
2023-01-02T11:10:28.367Z,12.72
2023-01-02T11:12:55.227Z,12.72
2023-01-02T11:15:30.981Z,12.69
2023-01-02T11:17:58.721Z,12.70
2023-01-02T11:20:30.610Z,12.69
2023-01-02T11:23:01.510Z,12.71
2023-01-02T11:25:40.671Z,12.68
2023-01-02T11:28:16.919Z,12.68
2023-01-02T11:30:46.610Z,12.65
2023-01-02T11:33:25.279Z,12.64
2023-01-02T11:36:18.847Z,12.66
2023-01-02T11:38:59.504Z,12.70
2023-01-02T11:41:45.940Z,12.71
2023-01-02T11:44:25.397Z,12.65
2023-01-02T11:46:53.257Z,12.63
2023-01-02T11:49:26.497Z,12.60
2023-01-02T11:51:58.039Z,12.57
2023-01-02T11:54:41.955Z,12.48
2023-01-02T11:57:19.241Z,12.42
2023-01-02T11:59:49.056Z,12.34
2023-01-02T12:02:22.123Z,12.29
2023-01-02T12:04:49.185Z,12.26
2023-01-02T12:07:42.066Z,12.25
2023-01-02T12:10:25.693Z,12.21
2023-01-02T12:13:14.997Z,12.21
2023-01-02T12:15:41.522Z,12.23
2023-01-02T12:18:26.454Z,12.23
2023-01-02T12:21:18.866Z,12.22
2023-01-02T12:23:48.520Z,12.12
2023-01-02T12:26:26.061Z,12.11
2023-01-02T12:29:46.082Z,12.06
2023-01-02T12:32:41.142Z,12.04
2023-01-02T12:35:41.801Z,12.04
2023-01-02T12:38:11.040Z,12.02
2023-01-02T12:40:59.661Z,11.94
2023-01-02T12:44:09.806Z,11.86
2023-01-02T12:47:02.122Z,11.83
2023-01-02T12:49:47.198Z,11.82
2023-01-02T12:52:42.902Z,11.80
2023-01-02T12:55:12.297Z,11.84
2023-01-02T12:57:44.724Z,11.84
2023-01-02T13:00:33.679Z,11.84
2023-01-02T13:03:23.220Z,11.82
2023-01-02T13:06:04.992Z,11.74
2023-01-02T13:09:03.479Z,11.72
2023-01-02T13:11:58.996Z,11.72
2023-01-02T13:14:37.176Z,11.77
2023-01-02T13:17:29.456Z,11.71
2023-01-02T13:39:44.092Z,11.62
2023-01-02T13:42:41.971Z,11.62
2023-01-02T13:45:16.135Z,11.64
2023-01-02T13:47:50.133Z,11.66
2023-01-02T13:50:32.563Z,11.60
2023-01-02T13:53:11.479Z,11.56
2023-01-02T13:55:41.180Z,11.54
2023-01-02T13:58:14.942Z,11.53
2023-01-02T14:00:51.594Z,11.50
2023-01-02T14:03:23.986Z,11.45
2023-01-02T14:05:56.800Z,11.42
2023-01-02T14:09:04.599Z,11.39
2023-01-02T14:11:55.736Z,11.41
2023-01-02T14:14:29.895Z,11.38
2023-01-02T14:17:05.828Z,11.32
2023-01-02T14:19:32.753Z,11.32
2023-01-02T14:21:59.288Z,11.32
2023-01-02T14:24:29.776Z,11.31
2023-01-02T14:27:04.838Z,11.31
2023-01-02T14:29:39.710Z,11.30
2023-01-02T14:32:17.288Z,11.36
2023-01-02T14:34:49.889Z,11.38
2023-01-02T14:37:44.083Z,11.43
2023-01-02T14:40:12.765Z,11.46
2023-01-02T14:43:00.323Z,11.46
2023-01-02T14:45:28.395Z,11.52
2023-01-02T14:48:00.929Z,11.60
2023-01-02T14:50:33.318Z,11.70
2023-01-02T14:53:09.949Z,11.70
2023-01-02T14:55:42.309Z,11.63
2023-01-02T14:58:48.533Z,11.53
2023-01-02T15:01:42.296Z,11.51
2023-01-02T15:04:17.074Z,11.50
2023-01-02T15:06:49.004Z,11.46
2023-01-02T15:09:28.467Z,11.47
2023-01-02T15:12:21.645Z,11.49
2023-01-02T15:14:48.218Z,11.47
2023-01-02T15:17:22.065Z,11.44
2023-01-02T15:19:49.358Z,11.43
2023-01-02T15:22:22.778Z,11.40
2023-01-02T15:24:52.064Z,11.40
2023-01-02T15:27:26.463Z,11.34
2023-01-02T15:30:17.551Z,11.29
2023-01-02T15:32:48.613Z,11.17
2023-01-02T15:35:30.043Z,11.09
2023-01-02T15:37:57.028Z,11.02
2023-01-02T15:40:23.596Z,10.92
2023-01-02T15:43:10.797Z,10.89
2023-01-02T15:45:45.004Z,10.90
2023-01-02T15:48:12.987Z,10.91
2023-01-02T15:50:40.703Z,10.91
2023-01-02T15:53:15.135Z,10.89
2023-01-02T15:55:42.199Z,10.86
2023-01-02T15:58:14.705Z,10.80
2023-01-02T16:00:42.368Z,10.77
2023-01-02T16:03:11.245Z,10.75
2023-01-02T16:05:49.612Z,10.68
2023-01-02T16:08:22.632Z,10.66
2023-01-02T16:10:51.473Z,10.63
2023-01-02T16:13:41.437Z,10.56
2023-01-02T16:16:15.719Z,10.48
2023-01-02T16:18:47.677Z,10.44
2023-01-02T16:21:16.112Z,10.41
2023-01-02T16:23:52.384Z,10.39
2023-01-02T16:26:21.787Z,10.41
2023-01-02T16:28:50.305Z,10.44
2023-01-02T16:31:19.881Z,10.49
2023-01-02T16:33:47.267Z,10.53
2023-01-02T16:36:16.800Z,10.56
2023-01-02T16:38:55.960Z,10.55
2023-01-02T16:41:36.598Z,10.57
2023-01-02T16:44:12.483Z,10.60
2023-01-02T16:46:43.058Z,10.63
2023-01-02T16:49:19.762Z,10.63
2023-01-02T16:51:50.564Z,10.67
2023-01-02T16:54:19.332Z,10.66
2023-01-02T16:56:47.112Z,10.65
2023-01-02T16:59:13.707Z,10.66
2023-01-02T17:01:40.390Z,10.67
2023-01-02T17:04:06.983Z,10.67
2023-01-02T17:06:33.641Z,10.70
2023-01-02T17:09:00.503Z,10.69
2023-01-02T17:11:27.302Z,10.68
2023-01-02T17:13:53.963Z,10.64
2023-01-02T17:16:20.744Z,10.57
2023-01-02T17:18:47.373Z,10.52
2023-01-02T17:21:14.293Z,10.48
2023-01-02T17:23:40.883Z,10.44
2023-01-02T17:26:07.495Z,10.42
2023-01-02T17:28:34.185Z,10.42
2023-01-02T17:31:00.896Z,10.45
2023-01-02T17:33:27.526Z,10.47
2023-01-02T17:35:54.177Z,10.46
2023-01-02T17:38:20.824Z,10.46
2023-01-02T17:40:47.501Z,10.45
2023-01-02T17:43:14.069Z,10.47
2023-01-02T17:45:42.978Z,10.48
2023-01-02T17:48:12.228Z,10.49
2023-01-02T17:50:40.789Z,10.50
2023-01-02T17:53:07.966Z,10.53
2023-01-02T17:55:34.930Z,10.58
2023-01-02T17:58:01.656Z,10.59
2023-01-02T18:00:28.744Z,10.61
2023-01-02T18:02:55.554Z,10.62
2023-01-02T18:05:22.961Z,10.60
2023-01-02T18:07:49.743Z,10.59
2023-01-02T18:10:20.035Z,10.57
2023-01-02T18:12:49.023Z,10.54
2023-01-02T18:15:16.469Z,10.50
2023-01-02T18:17:43.192Z,10.43
2023-01-02T18:20:12.825Z,10.38
2023-01-02T18:22:46.130Z,10.34
2023-01-02T18:25:27.606Z,10.27
2023-01-02T18:28:05.154Z,10.25
2023-01-02T18:30:31.835Z,10.24
2023-01-02T18:33:13.909Z,10.22
2023-01-02T18:35:57.220Z,10.28
2023-01-02T18:38:36.201Z,10.29
2023-01-02T18:41:24.403Z,10.32
2023-01-02T18:43:56.541Z,10.35
2023-01-02T18:47:04.646Z,10.32
2023-01-02T18:49:24.169Z,10.41
2023-01-02T18:52:17.072Z,10.47
2023-01-02T18:54:46.322Z,10.53
2023-01-02T18:57:18.379Z,10.58
2023-01-02T18:59:49.320Z,10.53
2023-01-02T19:02:39.833Z,10.59
2023-01-02T19:05:45.389Z,10.58
2023-01-02T19:08:25.508Z,10.58
2023-01-02T19:10:55.344Z,10.61
2023-01-02T19:13:32.328Z,10.59
2023-01-02T19:16:13.539Z,10.62
2023-01-02T19:18:41.822Z,10.61
2023-01-02T19:21:35.744Z,10.59
2023-01-02T19:24:24.199Z,10.60
2023-01-02T19:26:55.548Z,10.60
2023-01-02T19:29:24.839Z,10.61
2023-01-02T19:32:11.465Z,10.59
2023-01-02T19:34:52.080Z,10.52
2023-01-02T19:37:30.438Z,10.47
2023-01-02T19:40:00.195Z,10.44
2023-01-02T19:42:29.398Z,10.43
2023-01-02T19:45:01.721Z,10.42
2023-01-02T19:47:31.567Z,10.42
2023-01-02T19:49:59.324Z,10.39
2023-01-02T19:52:27.595Z,10.37
2023-01-02T19:54:54.827Z,10.35
2023-01-02T19:57:22.546Z,10.34
2023-01-02T19:59:50.992Z,10.35
2023-01-02T20:02:20.631Z,10.40
2023-01-02T20:04:50.029Z,10.43
2023-01-02T20:07:16.936Z,10.43
2023-01-02T20:09:44.507Z,10.45
2023-01-02T20:12:29.526Z,10.43
2023-01-02T20:15:07.349Z,10.41
2023-01-02T20:17:35.628Z,10.45
2023-01-02T20:20:03.087Z,10.44
2023-01-02T20:22:29.780Z,10.37
2023-01-02T20:24:56.351Z,10.28
2023-01-02T20:27:22.966Z,10.23
2023-01-02T20:29:51.028Z,10.25
2023-01-02T20:32:18.668Z,10.24
2023-01-02T20:34:45.335Z,10.26
2023-01-02T20:37:11.976Z,10.22
2023-01-02T20:39:38.608Z,10.20
2023-01-02T20:42:13.027Z,10.12
2023-01-02T20:44:40.325Z,10.03
2023-01-02T20:47:06.916Z,9.99
2023-01-02T20:49:33.470Z,9.98
2023-01-02T20:52:00.136Z,9.97
2023-01-02T20:54:27.056Z,9.98
2023-01-02T20:56:54.039Z,9.97
2023-01-02T20:59:21.335Z,9.98
2023-01-02T21:01:48.172Z,10.00
2023-01-02T21:04:18.793Z,10.02
2023-01-02T21:06:51.326Z,10.02
2023-01-02T21:09:17.839Z,10.02
2023-01-02T21:11:44.413Z,10.03
2023-01-02T21:14:11.076Z,10.01
2023-01-02T21:16:37.866Z,9.99
2023-01-02T21:19:04.644Z,9.98
2023-01-02T21:21:31.273Z,9.96
2023-01-02T21:23:57.904Z,9.97
2023-01-02T21:26:24.528Z,9.99
2023-01-02T21:28:51.217Z,9.99
2023-01-02T21:31:19.465Z,9.99
2023-01-02T21:33:47.201Z,10.00
2023-01-02T21:36:15.648Z,10.03
2023-01-02T21:38:43.579Z,10.03
2023-01-02T21:41:28.745Z,10.03
2023-01-02T21:43:55.556Z,10.01
2023-01-02T21:46:22.199Z,10.02
2023-01-02T21:48:49.019Z,9.98
2023-01-02T21:51:15.705Z,9.96
2023-01-02T21:53:42.273Z,9.94
2023-01-02T21:56:09.490Z,9.95
2023-01-02T21:58:36.200Z,9.95
2023-01-02T22:01:02.869Z,9.95
2023-01-02T22:03:29.731Z,9.97
2023-01-02T22:05:56.467Z,9.95
2023-01-02T22:08:23.028Z,9.92
2023-01-02T22:10:49.822Z,9.89
2023-01-02T22:13:16.573Z,9.92
2023-01-02T22:15:45.683Z,9.90
2023-01-02T22:18:12.797Z,9.90
2023-01-02T22:20:39.417Z,9.92
2023-01-02T22:23:06.084Z,9.94
2023-01-02T22:25:32.869Z,9.94
2023-01-02T22:27:59.650Z,9.93
2023-01-02T22:30:33.997Z,9.93
2023-01-02T22:33:02.191Z,9.94
2023-01-02T22:35:29.114Z,9.93
2023-01-02T22:37:57.304Z,9.94
2023-01-02T22:40:23.957Z,9.91
2023-01-02T22:43:05.427Z,9.91
2023-01-02T22:45:53.616Z,9.83
2023-01-02T22:48:20.109Z,9.85
2023-01-02T22:50:48.220Z,9.85
2023-01-02T22:53:37.915Z,9.82
2023-01-02T22:56:16.629Z,9.79
2023-01-02T22:58:43.848Z,9.81
2023-01-02T23:01:25.760Z,9.76
2023-01-02T23:03:52.390Z,9.69
2023-01-02T23:06:22.119Z,9.66
2023-01-02T23:08:49.379Z,9.63
2023-01-02T23:11:16.063Z,9.62
2023-01-02T23:13:43.346Z,9.62
2023-01-02T23:16:29.403Z,9.63
2023-01-02T23:19:14.715Z,9.65
2023-01-02T23:21:44.165Z,9.64
2023-01-02T23:24:12.517Z,9.65
2023-01-02T23:26:42.091Z,9.66
2023-01-02T23:29:09.602Z,9.68
2023-01-02T23:31:39.905Z,9.70
2023-01-02T23:34:07.263Z,9.67
2023-01-02T23:36:34.477Z,9.64
2023-01-02T23:39:02.186Z,9.64
2023-01-02T23:41:28.761Z,9.63
2023-01-02T23:43:55.364Z,9.63
2023-01-02T23:46:22.084Z,9.62
2023-01-02T23:48:48.837Z,9.60
2023-01-02T23:51:15.492Z,9.59
2023-01-02T23:53:42.093Z,9.60
2023-01-02T23:56:25.223Z,9.58
2023-01-02T23:58:53.526Z,9.60
